createdAt,value
2018-08-03T00:00:15.897Z,16.30
2018-08-03T00:01:15.778Z,16.31
2018-08-03T00:02:17.484Z,16.30
2018-08-03T00:03:15.537Z,16.31
2018-08-03T00:04:15.413Z,16.35
2018-08-03T00:05:15.294Z,16.40
2018-08-03T00:06:15.172Z,16.38
2018-08-03T00:07:15.050Z,16.40
2018-08-03T00:08:14.940Z,16.33
2018-08-03T00:09:14.808Z,16.34
2018-08-03T00:10:14.688Z,16.26
2018-08-03T00:11:14.564Z,16.31
2018-08-03T00:12:14.446Z,16.34
2018-08-03T00:13:14.325Z,16.33
2018-08-03T00:14:14.234Z,16.30
2018-08-03T00:15:14.084Z,16.34
2018-08-03T00:16:13.958Z,16.35
2018-08-03T00:17:13.836Z,16.34
2018-08-03T00:18:13.718Z,16.31
2018-08-03T00:19:13.595Z,16.31
2018-08-03T00:20:13.474Z,16.30
2018-08-03T00:21:13.355Z,16.37
2018-08-03T00:22:13.235Z,16.34
2018-08-03T00:23:13.111Z,16.26
2018-08-03T00:24:12.991Z,16.31
2018-08-03T00:25:12.871Z,16.23
2018-08-03T00:26:12.749Z,16.20
2018-08-03T00:27:14.491Z,16.22
2018-08-03T00:28:12.506Z,16.26
2018-08-03T00:29:12.385Z,16.25
2018-08-03T00:30:12.264Z,16.16
2018-08-03T00:31:12.142Z,16.22
2018-08-03T00:32:12.021Z,16.20
2018-08-03T00:33:11.899Z,16.34
2018-08-03T00:34:11.777Z,16.41
2018-08-03T00:35:11.662Z,16.53
2018-08-03T00:36:11.536Z,16.55
2018-08-03T00:37:11.414Z,16.52
2018-08-03T00:38:11.292Z,16.60
2018-08-03T00:39:11.171Z,16.50
2018-08-03T00:40:11.049Z,16.52
2018-08-03T00:41:10.928Z,16.67
2018-08-03T00:42:10.807Z,16.62
2018-08-03T00:43:10.690Z,16.68
2018-08-03T00:44:10.564Z,16.59
2018-08-03T00:45:10.443Z,16.58
2018-08-03T00:46:10.324Z,16.53
2018-08-03T00:47:11.077Z,16.44
2018-08-03T00:48:10.083Z,16.40
2018-08-03T00:49:09.963Z,16.40
2018-08-03T00:50:09.840Z,16.40
2018-08-03T00:51:11.501Z,16.31
2018-08-03T00:52:09.595Z,16.23
2018-08-03T00:53:09.472Z,16.25
2018-08-03T00:54:09.353Z,16.18
2018-08-03T00:55:09.233Z,16.37
2018-08-03T00:56:09.111Z,16.34
2018-08-03T00:57:10.498Z,16.23
2018-08-03T00:58:08.868Z,16.23
2018-08-03T00:59:08.753Z,16.14
2018-08-03T01:00:08.624Z,16.18
2018-08-03T01:01:08.502Z,16.16
2018-08-03T01:02:08.384Z,16.15
2018-08-03T01:03:08.267Z,16.09
2018-08-03T01:04:08.139Z,16.25
2018-08-03T01:05:08.019Z,16.25
2018-08-03T01:06:07.900Z,16.25
2018-08-03T01:07:07.775Z,16.30
2018-08-03T01:08:07.654Z,16.22
2018-08-03T01:09:07.548Z,16.15
2018-08-03T01:10:07.418Z,16.25
2018-08-03T01:11:07.292Z,16.14
2018-08-03T01:12:07.167Z,16.14
2018-08-03T01:13:07.053Z,16.26
2018-08-03T01:14:06.926Z,16.16
2018-08-03T01:15:06.804Z,16.09
2018-08-03T01:16:07.089Z,16.16
2018-08-03T01:17:06.563Z,16.12
2018-08-03T01:18:06.452Z,16.26
2018-08-03T01:19:06.319Z,16.18
2018-08-03T01:20:06.197Z,16.18
2018-08-03T01:21:06.075Z,16.23
2018-08-03T01:22:05.956Z,16.23
2018-08-03T01:23:05.834Z,16.15
2018-08-03T01:24:05.716Z,16.30
2018-08-03T01:25:05.592Z,16.34
2018-08-03T01:26:05.473Z,16.33
2018-08-03T01:27:05.349Z,16.37
2018-08-03T01:28:05.228Z,16.37
2018-08-03T01:29:05.112Z,16.33
2018-08-03T01:30:04.987Z,16.35
2018-08-03T01:31:04.869Z,16.30
2018-08-03T01:32:04.748Z,16.38
2018-08-03T01:33:04.623Z,16.38
2018-08-03T01:34:04.501Z,16.48
2018-08-03T01:35:04.381Z,16.44
2018-08-03T01:36:04.259Z,16.42
2018-08-03T01:37:04.137Z,16.44
2018-08-03T01:38:04.021Z,16.44
2018-08-03T01:39:03.901Z,16.48
2018-08-03T01:40:03.776Z,16.49
2018-08-03T01:41:03.655Z,16.48
2018-08-03T01:42:03.543Z,16.55
2018-08-03T01:43:03.411Z,16.52
2018-08-03T01:44:03.290Z,16.49
2018-08-03T01:45:03.169Z,16.45
2018-08-03T01:46:03.052Z,16.37
2018-08-03T01:47:02.928Z,16.38
2018-08-03T01:48:02.814Z,16.26
2018-08-03T01:49:02.683Z,16.30
2018-08-03T01:50:02.568Z,16.25
2018-08-03T01:51:02.448Z,16.30
2018-08-03T01:52:02.323Z,16.18
2018-08-03T01:53:02.200Z,16.25
2018-08-03T01:54:02.079Z,16.11
2018-08-03T01:55:01.960Z,16.15
2018-08-03T01:56:01.838Z,16.09
2018-08-03T01:57:01.717Z,16.14
2018-08-03T01:58:01.595Z,16.14
2018-08-03T01:59:01.486Z,16.16
2018-08-03T02:00:01.353Z,16.09
2018-08-03T02:01:01.231Z,16.14
2018-08-03T02:02:01.114Z,16.03
2018-08-03T02:03:00.995Z,16.03
2018-08-03T02:04:00.878Z,15.96
2018-08-03T02:05:00.747Z,15.94
2018-08-03T02:06:02.515Z,16.06
2018-08-03T02:07:00.506Z,15.94
2018-08-03T02:08:00.385Z,15.94
2018-08-03T02:09:00.260Z,16.03
2018-08-03T02:10:00.140Z,16.04
2018-08-03T02:11:00.018Z,15.99
2018-08-03T02:11:59.896Z,15.92
2018-08-03T02:12:59.776Z,15.86
2018-08-03T02:13:59.759Z,15.93
2018-08-03T02:14:59.533Z,15.92
2018-08-03T02:15:59.415Z,16.07
2018-08-03T02:16:59.296Z,16.07
2018-08-03T02:17:59.171Z,15.99
2018-08-03T02:18:59.061Z,15.97
2018-08-03T02:19:58.924Z,16.03
2018-08-03T02:20:58.814Z,16.03
2018-08-03T02:21:58.685Z,16.01
2018-08-03T02:22:58.561Z,16.04
2018-08-03T02:23:58.442Z,16.12
2018-08-03T02:24:58.322Z,16.04
2018-08-03T02:25:58.197Z,16.04
2018-08-03T02:26:58.076Z,16.07
2018-08-03T02:27:57.956Z,16.09
2018-08-03T02:28:57.832Z,16.03
2018-08-03T02:29:57.710Z,15.94
2018-08-03T02:30:57.594Z,15.93
2018-08-03T02:31:59.025Z,15.92
2018-08-03T02:32:57.347Z,15.93
2018-08-03T02:33:57.227Z,15.89
2018-08-03T02:34:57.102Z,15.94
2018-08-03T02:35:56.984Z,15.93
2018-08-03T02:36:56.860Z,15.93
2018-08-03T02:37:58.526Z,15.84
2018-08-03T02:38:56.617Z,15.86
2018-08-03T02:39:56.498Z,15.81
2018-08-03T02:40:56.377Z,15.81
2018-08-03T02:41:56.264Z,15.88
2018-08-03T02:42:56.131Z,15.81
2018-08-03T02:43:56.016Z,15.93
2018-08-03T02:44:55.888Z,15.86
2018-08-03T02:45:55.765Z,15.84
2018-08-03T02:46:55.644Z,15.84
2018-08-03T02:47:55.522Z,15.78
2018-08-03T02:48:55.403Z,15.85
2018-08-03T02:49:55.295Z,15.85
2018-08-03T02:50:55.159Z,15.84
2018-08-03T02:51:55.036Z,15.81
2018-08-03T02:52:54.915Z,15.81
2018-08-03T02:53:54.795Z,15.76
2018-08-03T02:54:54.671Z,15.78
2018-08-03T02:55:54.548Z,15.68
2018-08-03T02:56:54.430Z,15.75
2018-08-03T02:57:54.306Z,15.76
2018-08-03T02:58:54.187Z,15.75
2018-08-03T02:59:54.063Z,15.78
2018-08-03T03:00:53.942Z,15.72
2018-08-03T03:01:53.820Z,15.74
2018-08-03T03:02:53.701Z,15.74
2018-08-03T03:03:53.578Z,15.74
2018-08-03T03:04:53.456Z,15.75
2018-08-03T03:05:53.336Z,15.70
2018-08-03T03:06:53.215Z,15.67
2018-08-03T03:07:53.090Z,15.72
2018-08-03T03:08:52.969Z,15.64
2018-08-03T03:09:52.849Z,15.72
2018-08-03T03:10:52.727Z,15.68
2018-08-03T03:11:52.606Z,15.60
2018-08-03T03:12:53.093Z,15.59
2018-08-03T03:13:52.363Z,15.61
2018-08-03T03:14:52.242Z,15.52
2018-08-03T03:15:52.116Z,15.59
2018-08-03T03:16:51.998Z,15.63
2018-08-03T03:17:51.877Z,15.60
2018-08-03T03:18:51.764Z,15.60
2018-08-03T03:19:51.632Z,15.63
2018-08-03T03:20:51.509Z,15.61
2018-08-03T03:21:51.389Z,15.61
2018-08-03T03:22:51.266Z,15.61
2018-08-03T03:23:51.145Z,15.49
2018-08-03T03:24:51.033Z,15.52
2018-08-03T03:25:50.902Z,15.52
2018-08-03T03:26:50.780Z,15.60
2018-08-03T03:27:50.657Z,15.61
2018-08-03T03:28:50.541Z,15.59
2018-08-03T03:29:50.414Z,15.52
2018-08-03T03:30:50.297Z,15.59
2018-08-03T03:31:50.173Z,15.56
2018-08-03T03:32:50.056Z,15.60
2018-08-03T03:33:49.931Z,15.52
2018-08-03T03:34:49.805Z,15.52
2018-08-03T03:35:49.684Z,15.56
2018-08-03T03:36:49.563Z,15.51
2018-08-03T03:37:49.442Z,15.45
2018-08-03T03:38:49.319Z,15.51
2018-08-03T03:39:49.196Z,15.49
2018-08-03T03:40:49.078Z,15.48
2018-08-03T03:41:49.093Z,15.49
2018-08-03T03:42:48.830Z,15.46
2018-08-03T03:43:48.713Z,15.48
2018-08-03T03:44:50.543Z,15.48
2018-08-03T03:45:50.043Z,15.51
2018-08-03T03:46:48.344Z,15.51
2018-08-03T03:47:48.223Z,15.41
2018-08-03T03:48:48.102Z,15.51
2018-08-03T03:49:47.987Z,15.42
2018-08-03T03:50:47.858Z,15.42
2018-08-03T03:51:49.543Z,15.41
2018-08-03T03:52:47.619Z,15.49
2018-08-03T03:53:47.492Z,15.51
2018-08-03T03:54:47.370Z,15.63
2018-08-03T03:55:47.249Z,15.64
2018-08-03T03:56:47.128Z,15.66
2018-08-03T03:57:47.007Z,15.63
2018-08-03T03:58:46.885Z,15.60
2018-08-03T03:59:46.788Z,15.66
2018-08-03T04:00:46.638Z,15.61
2018-08-03T04:01:46.521Z,15.70
2018-08-03T04:02:46.398Z,15.70
2018-08-03T04:03:46.292Z,15.67
2018-08-03T04:04:46.151Z,15.66
2018-08-03T04:05:46.031Z,15.64
2018-08-03T04:06:45.920Z,15.60
2018-08-03T04:07:45.787Z,15.56
2018-08-03T04:08:45.684Z,15.61
2018-08-03T04:09:45.547Z,15.61
2018-08-03T04:10:45.423Z,15.72
2018-08-03T04:11:45.304Z,15.66
2018-08-03T04:12:45.178Z,15.51
2018-08-03T04:13:45.057Z,15.51
2018-08-03T04:14:44.934Z,15.63
2018-08-03T04:15:44.816Z,15.70
2018-08-03T04:16:46.552Z,15.59
2018-08-03T04:17:44.570Z,15.60
2018-08-03T04:18:44.463Z,15.67
2018-08-03T04:19:44.324Z,15.56
2018-08-03T04:20:46.051Z,15.59
2018-08-03T04:21:44.081Z,15.52
2018-08-03T04:22:43.960Z,15.60
2018-08-03T04:23:43.839Z,15.59
2018-08-03T04:24:45.902Z,15.54
2018-08-03T04:25:43.595Z,15.52
2018-08-03T04:26:43.473Z,15.59
2018-08-03T04:27:43.350Z,15.51
2018-08-03T04:28:43.231Z,15.49
2018-08-03T04:29:43.108Z,15.52
2018-08-03T04:30:42.987Z,15.48
2018-08-03T04:31:42.864Z,15.54
2018-08-03T04:32:42.741Z,15.49
2018-08-03T04:33:42.619Z,15.52
2018-08-03T04:34:42.502Z,15.54
2018-08-03T04:35:42.378Z,15.46
2018-08-03T04:36:42.261Z,15.46
2018-08-03T04:37:42.134Z,15.59
2018-08-03T04:38:42.015Z,15.52
2018-08-03T04:39:41.892Z,15.41
2018-08-03T04:40:41.771Z,15.39
2018-08-03T04:41:41.648Z,15.45
2018-08-03T04:42:41.525Z,15.43
2018-08-03T04:43:41.407Z,15.45
2018-08-03T04:44:41.282Z,15.33
2018-08-03T04:45:41.210Z,15.36
2018-08-03T04:46:41.041Z,15.33
2018-08-03T04:47:40.917Z,15.35
2018-08-03T04:48:40.856Z,15.33
2018-08-03T04:49:40.681Z,15.28
2018-08-03T04:50:40.553Z,15.38
2018-08-03T04:51:40.433Z,15.38
2018-08-03T04:52:40.312Z,15.35
2018-08-03T04:53:40.193Z,15.45
2018-08-03T04:54:40.095Z,15.41
2018-08-03T04:55:39.967Z,15.46
2018-08-03T04:56:39.836Z,15.48
2018-08-03T04:57:39.710Z,15.54
2018-08-03T04:58:39.584Z,15.59
2018-08-03T04:59:39.462Z,15.64
2018-08-03T05:00:39.344Z,15.75
2018-08-03T05:01:39.218Z,15.78
2018-08-03T05:02:39.101Z,15.84
2018-08-03T05:03:38.976Z,15.89
2018-08-03T05:04:38.870Z,16.12
2018-08-03T05:05:38.735Z,16.33
2018-08-03T05:06:38.614Z,16.49
2018-08-03T05:07:38.493Z,16.53
2018-08-03T05:08:38.374Z,16.67
2018-08-03T05:09:39.101Z,16.73
2018-08-03T05:10:38.130Z,16.83
2018-08-03T05:11:38.006Z,16.88
2018-08-03T05:12:37.891Z,16.83
2018-08-03T05:13:37.766Z,16.83
2018-08-03T05:14:37.645Z,16.93
2018-08-03T05:15:37.523Z,16.99
2018-08-03T05:16:37.406Z,17.04
2018-08-03T05:17:37.284Z,17.14
2018-08-03T05:18:37.158Z,17.11
2018-08-03T05:19:37.042Z,17.20
2018-08-03T05:20:36.919Z,17.15
2018-08-03T05:21:36.797Z,17.20
2018-08-03T05:22:36.677Z,17.26
2018-08-03T05:23:36.556Z,17.35
2018-08-03T05:24:36.448Z,17.35
2018-08-03T05:25:36.315Z,17.41
2018-08-03T05:26:36.193Z,17.47
2018-08-03T05:27:36.072Z,17.50
2018-08-03T05:28:35.951Z,17.63
2018-08-03T05:29:35.832Z,17.63
2018-08-03T05:30:35.710Z,17.69
2018-08-03T05:31:35.590Z,17.81
2018-08-03T05:32:35.469Z,17.85
2018-08-03T05:33:35.352Z,17.84
2018-08-03T05:34:35.229Z,17.79
2018-08-03T05:35:35.155Z,17.89
2018-08-03T05:36:34.990Z,18.06
2018-08-03T05:37:34.868Z,18.04
2018-08-03T05:38:35.105Z,18.07
2018-08-03T05:39:34.626Z,18.10
2018-08-03T05:40:34.505Z,18.02
2018-08-03T05:41:34.385Z,17.97
2018-08-03T05:42:34.337Z,18.03
2018-08-03T05:43:34.144Z,18.03
2018-08-03T05:44:34.026Z,18.04
2018-08-03T05:45:33.973Z,18.10
2018-08-03T05:46:33.787Z,18.06
2018-08-03T05:47:33.668Z,18.17
2018-08-03T05:48:33.547Z,18.17
2018-08-03T05:49:33.424Z,18.15
2018-08-03T05:50:33.303Z,18.10
2018-08-03T05:51:33.183Z,18.15
2018-08-03T05:52:33.078Z,18.15
2018-08-03T05:53:32.943Z,18.34
2018-08-03T05:54:32.844Z,18.28
2018-08-03T05:55:32.703Z,18.42
2018-08-03T05:56:32.592Z,18.46
2018-08-03T05:57:32.471Z,18.62
2018-08-03T05:58:32.345Z,18.72
2018-08-03T05:59:32.222Z,18.82
2018-08-03T06:00:32.105Z,18.77
2018-08-03T06:01:31.984Z,18.80
2018-08-03T06:02:31.864Z,18.82
2018-08-03T06:03:31.745Z,18.86
2018-08-03T06:04:31.627Z,18.64
2018-08-03T06:05:31.506Z,18.59
2018-08-03T06:06:31.387Z,18.43
2018-08-03T06:07:31.268Z,18.44
2018-08-03T06:08:31.147Z,18.44
2018-08-03T06:09:31.079Z,18.64
2018-08-03T06:10:30.912Z,18.70
2018-08-03T06:11:30.787Z,18.95
2018-08-03T06:12:30.667Z,19.05
2018-08-03T06:13:30.549Z,19.14
2018-08-03T06:14:30.432Z,19.10
2018-08-03T06:15:30.309Z,19.24
2018-08-03T06:16:30.189Z,19.14
2018-08-03T06:17:30.074Z,19.29
2018-08-03T06:18:29.951Z,19.31
2018-08-03T06:19:29.829Z,19.35
2018-08-03T06:20:29.708Z,19.25
2018-08-03T06:21:29.591Z,19.35
2018-08-03T06:22:29.471Z,19.33
2018-08-03T06:23:29.355Z,19.14
2018-08-03T06:24:29.231Z,18.72
2018-08-03T06:25:29.117Z,18.47
2018-08-03T06:26:28.995Z,18.54
2018-08-03T06:27:28.871Z,18.82
2018-08-03T06:28:28.794Z,18.91
2018-08-03T06:29:28.665Z,19.15
2018-08-03T06:30:28.515Z,19.17
2018-08-03T06:31:28.394Z,19.40
2018-08-03T06:32:28.274Z,19.38
2018-08-03T06:33:28.223Z,19.51
2018-08-03T06:34:28.041Z,19.32
2018-08-03T06:35:27.922Z,19.14
2018-08-03T06:36:27.798Z,19.21
2018-08-03T06:37:27.685Z,19.29
2018-08-03T06:38:27.560Z,19.33
2018-08-03T06:39:27.439Z,19.32
2018-08-03T06:40:27.323Z,19.31
2018-08-03T06:41:27.202Z,19.50
2018-08-03T06:42:27.080Z,19.57
2018-08-03T06:43:26.969Z,19.51
2018-08-03T06:44:26.842Z,19.60
2018-08-03T06:45:26.723Z,19.55
2018-08-03T06:46:26.603Z,19.69
2018-08-03T06:47:26.484Z,19.84
2018-08-03T06:48:26.403Z,19.91
2018-08-03T06:49:26.247Z,19.93
2018-08-03T06:50:26.126Z,20.03
2018-08-03T06:51:26.007Z,20.12
2018-08-03T06:52:25.889Z,20.21
2018-08-03T06:53:25.770Z,20.27
2018-08-03T06:54:25.659Z,20.25
2018-08-03T06:55:25.530Z,20.35
2018-08-03T06:56:25.415Z,20.38
2018-08-03T06:57:25.308Z,20.34
2018-08-03T06:58:25.194Z,20.43
2018-08-03T06:59:25.075Z,20.49
2018-08-03T07:00:24.937Z,20.56
2018-08-03T07:01:24.816Z,20.47
2018-08-03T07:02:24.715Z,20.54
2018-08-03T07:03:24.586Z,20.56
2018-08-03T07:04:24.488Z,20.77
2018-08-03T07:05:24.343Z,20.74
2018-08-03T07:06:25.136Z,20.66
2018-08-03T07:07:24.105Z,20.68
2018-08-03T07:08:24.019Z,20.58
2018-08-03T07:09:23.867Z,20.59
2018-08-03T07:10:23.749Z,20.66
2018-08-03T07:11:23.630Z,20.72
2018-08-03T07:12:23.511Z,20.79
2018-08-03T07:13:23.390Z,20.89
2018-08-03T07:14:23.274Z,21.01
2018-08-03T07:15:23.159Z,21.26
2018-08-03T07:16:23.037Z,21.35
2018-08-03T07:17:22.918Z,21.44
2018-08-03T07:18:22.800Z,21.32
2018-08-03T07:19:22.680Z,21.42
2018-08-03T07:20:22.773Z,21.46
2018-08-03T07:21:22.443Z,21.53
2018-08-03T07:22:22.331Z,21.48
2018-08-03T07:23:22.205Z,21.59
2018-08-03T07:24:22.090Z,21.48
2018-08-03T07:25:23.603Z,21.44
2018-08-03T07:26:21.852Z,21.46
2018-08-03T07:27:21.733Z,21.50
2018-08-03T07:28:21.616Z,21.51
2018-08-03T07:29:21.498Z,21.67
2018-08-03T07:30:21.382Z,21.66
2018-08-03T07:31:21.264Z,21.88
2018-08-03T07:32:21.143Z,21.98
2018-08-03T07:33:21.025Z,21.95
2018-08-03T07:34:20.909Z,21.98
2018-08-03T07:35:21.137Z,21.98
2018-08-03T07:36:20.669Z,21.98
2018-08-03T07:37:20.553Z,22.06
2018-08-03T07:38:20.435Z,22.09
2018-08-03T07:39:20.315Z,22.06
2018-08-03T07:40:20.199Z,22.01
2018-08-03T07:41:20.081Z,22.02
2018-08-03T07:42:19.970Z,21.76
2018-08-03T07:43:19.920Z,21.72
2018-08-03T07:44:19.777Z,21.88
2018-08-03T07:45:19.611Z,22.02
2018-08-03T07:46:19.493Z,22.09
2018-08-03T07:47:19.374Z,22.19
2018-08-03T07:48:19.255Z,22.20
2018-08-03T07:49:19.140Z,22.17
2018-08-03T07:50:19.020Z,22.22
2018-08-03T07:51:18.902Z,22.22
2018-08-03T07:52:18.787Z,22.25
2018-08-03T07:53:18.671Z,22.34
2018-08-03T07:54:18.550Z,22.17
2018-08-03T07:55:18.433Z,22.28
2018-08-03T07:56:18.315Z,22.23
2018-08-03T07:57:18.202Z,22.20
2018-08-03T07:58:18.080Z,22.23
2018-08-03T07:59:17.966Z,22.39
2018-08-03T08:00:17.845Z,22.39
2018-08-03T08:01:17.727Z,22.44
2018-08-03T08:02:17.611Z,22.56
2018-08-03T08:03:17.510Z,22.44
2018-08-03T08:04:17.375Z,22.43
2018-08-03T08:05:17.258Z,22.31
2018-08-03T08:06:17.161Z,22.29
2018-08-03T08:07:17.023Z,22.23
2018-08-03T08:08:16.907Z,22.31
2018-08-03T08:09:16.789Z,22.31
2018-08-03T08:10:16.675Z,22.32
2018-08-03T08:11:16.554Z,22.39
2018-08-03T08:12:16.435Z,22.53
2018-08-03T08:13:16.318Z,22.68
2018-08-03T08:14:16.200Z,22.65
2018-08-03T08:15:16.125Z,22.86
2018-08-03T08:16:15.970Z,23.05
2018-08-03T08:17:15.850Z,23.22
2018-08-03T08:18:15.733Z,23.39
2018-08-03T08:19:15.617Z,23.01
2018-08-03T08:20:15.582Z,22.43
2018-08-03T08:21:15.384Z,22.29
2018-08-03T08:22:15.265Z,22.65
2018-08-03T08:23:17.125Z,22.31
2018-08-03T08:24:16.621Z,22.16
2018-08-03T08:25:14.915Z,22.41
2018-08-03T08:26:14.891Z,22.72
2018-08-03T08:27:14.682Z,23.01
2018-08-03T08:28:14.563Z,23.14
2018-08-03T08:29:14.449Z,23.45
2018-08-03T08:30:14.331Z,23.55
2018-08-03T08:31:14.215Z,23.67
2018-08-03T08:32:14.098Z,23.85
2018-08-03T08:33:13.984Z,23.79
2018-08-03T08:34:13.868Z,23.87
2018-08-03T08:35:13.753Z,23.86
2018-08-03T08:36:13.635Z,23.89
2018-08-03T08:37:13.517Z,23.89
2018-08-03T08:38:13.405Z,23.98
2018-08-03T08:39:13.283Z,23.95
2018-08-03T08:40:13.191Z,24.02
2018-08-03T08:41:13.053Z,24.08
2018-08-03T08:42:12.935Z,24.14
2018-08-03T08:43:12.818Z,24.10
2018-08-03T08:44:12.706Z,24.13
2018-08-03T08:45:12.588Z,23.76
2018-08-03T08:46:12.473Z,23.97
2018-08-03T08:47:12.406Z,24.02
2018-08-03T08:48:12.350Z,24.07
2018-08-03T08:49:12.128Z,24.14
2018-08-03T08:50:12.012Z,24.16
2018-08-03T08:51:11.955Z,24.13
2018-08-03T08:52:11.814Z,24.17
2018-08-03T08:53:11.709Z,24.26
2018-08-03T08:54:11.551Z,24.19
2018-08-03T08:55:11.433Z,24.34
2018-08-03T08:56:11.359Z,24.45
2018-08-03T08:57:11.198Z,24.45
2018-08-03T08:58:11.224Z,24.41
2018-08-03T08:59:12.635Z,24.39
2018-08-03T09:00:10.882Z,24.32
2018-08-03T09:01:10.972Z,24.41
2018-08-03T09:02:10.651Z,24.68
2018-08-03T09:03:11.647Z,24.82
2018-08-03T09:04:10.483Z,24.97
2018-08-03T09:05:10.272Z,25.10
2018-08-03T09:06:10.153Z,25.17
2018-08-03T09:07:10.043Z,25.31
2018-08-03T09:08:09.922Z,25.32
2018-08-03T09:09:09.811Z,25.35
2018-08-03T09:10:09.691Z,25.25
2018-08-03T09:11:09.573Z,25.17
2018-08-03T09:12:09.457Z,25.19
2018-08-03T09:13:09.370Z,25.46
2018-08-03T09:14:09.229Z,25.53
2018-08-03T09:15:09.116Z,25.35
2018-08-03T09:16:08.999Z,25.47
2018-08-03T09:17:08.891Z,25.49
2018-08-03T09:18:08.769Z,25.25
2018-08-03T09:19:08.653Z,25.22
2018-08-03T09:20:08.537Z,25.37
2018-08-03T09:21:08.422Z,25.57
2018-08-03T09:22:08.428Z,25.62
2018-08-03T09:23:08.198Z,25.65
2018-08-03T09:24:08.079Z,25.79
2018-08-03T09:25:07.962Z,25.69
2018-08-03T09:26:07.847Z,25.56
2018-08-03T09:27:07.733Z,25.49
2018-08-03T09:28:07.617Z,25.27
2018-08-03T09:29:07.502Z,25.24
2018-08-03T09:30:07.388Z,25.43
2018-08-03T09:31:07.389Z,25.57
2018-08-03T09:32:07.161Z,25.67
2018-08-03T09:33:07.042Z,25.79
2018-08-03T09:34:06.942Z,25.89
2018-08-03T09:35:06.812Z,25.74
2018-08-03T09:36:06.697Z,25.67
2018-08-03T09:37:06.581Z,25.62
2018-08-03T09:38:06.468Z,25.71
2018-08-03T09:39:06.353Z,25.65
2018-08-03T09:40:06.238Z,25.71
2018-08-03T09:41:06.123Z,25.82
2018-08-03T09:42:06.004Z,25.83
2018-08-03T09:43:05.893Z,25.93
2018-08-03T09:44:05.780Z,25.97
2018-08-03T09:45:05.663Z,25.80
2018-08-03T09:46:05.545Z,25.87
2018-08-03T09:47:05.429Z,25.93
2018-08-03T09:48:05.318Z,25.35
2018-08-03T09:49:07.174Z,25.54
2018-08-03T09:50:05.086Z,25.46
2018-08-03T09:51:04.973Z,25.61
2018-08-03T09:52:04.857Z,25.75
2018-08-03T09:53:04.741Z,25.71
2018-08-03T09:54:04.626Z,25.72
2018-08-03T09:55:04.571Z,26.11
2018-08-03T09:56:04.401Z,26.32
2018-08-03T09:57:04.281Z,26.24
2018-08-03T09:58:04.169Z,26.35
2018-08-03T09:59:04.052Z,26.35
2018-08-03T10:00:03.937Z,26.28
2018-08-03T10:01:03.824Z,26.21
2018-08-03T10:02:03.710Z,26.35
2018-08-03T10:03:03.593Z,26.50
2018-08-03T10:04:03.476Z,26.62
2018-08-03T10:05:03.363Z,26.72
2018-08-03T10:06:03.250Z,26.83
2018-08-03T10:07:03.133Z,26.87
2018-08-03T10:08:03.021Z,26.92
2018-08-03T10:09:02.906Z,27.14
2018-08-03T10:10:02.814Z,27.26
2018-08-03T10:11:02.676Z,27.16
2018-08-03T10:12:02.567Z,27.14
2018-08-03T10:13:02.451Z,27.38
2018-08-03T10:14:02.334Z,27.41
2018-08-03T10:15:02.221Z,27.29
2018-08-03T10:16:02.105Z,27.02
2018-08-03T10:17:01.995Z,26.96
2018-08-03T10:18:01.879Z,27.10
2018-08-03T10:19:01.765Z,27.17
2018-08-03T10:20:01.654Z,27.24
2018-08-03T10:21:01.536Z,27.10
2018-08-03T10:22:01.422Z,27.28
2018-08-03T10:23:01.311Z,27.47
2018-08-03T10:24:01.198Z,27.54
2018-08-03T10:25:01.089Z,27.42
2018-08-03T10:26:00.969Z,27.51
2018-08-03T10:27:00.854Z,27.36
2018-08-03T10:28:00.739Z,27.36
2018-08-03T10:29:03.165Z,27.54
2018-08-03T10:30:00.516Z,27.50
2018-08-03T10:31:01.168Z,27.66
2018-08-03T10:32:00.289Z,27.67
2018-08-03T10:33:00.175Z,27.57
2018-08-03T10:34:00.059Z,27.36
2018-08-03T10:34:59.998Z,27.23
2018-08-03T10:35:59.833Z,27.36
2018-08-03T10:37:01.671Z,27.53
2018-08-03T10:37:59.605Z,27.70
2018-08-03T10:38:59.494Z,27.74
2018-08-03T10:39:59.380Z,27.84
2018-08-03T10:40:59.268Z,28.03
2018-08-03T10:41:59.162Z,28.06
2018-08-03T10:42:59.167Z,28.25
2018-08-03T10:43:58.929Z,28.41
2018-08-03T10:44:58.817Z,28.01
2018-08-03T10:45:58.704Z,27.94
2018-08-03T10:46:58.592Z,27.53
2018-08-03T10:47:58.480Z,27.47
2018-08-03T10:48:58.363Z,27.71
2018-08-03T10:49:58.253Z,28.04
2018-08-03T10:50:58.140Z,28.25
2018-08-03T10:51:58.028Z,28.38
2018-08-03T10:52:57.918Z,28.58
2018-08-03T10:53:57.805Z,28.63
2018-08-03T10:54:57.691Z,28.69
2018-08-03T10:55:57.579Z,28.50
2018-08-03T10:56:57.469Z,28.77
2018-08-03T10:57:57.358Z,28.84
2018-08-03T10:58:57.242Z,28.85
2018-08-03T10:59:57.203Z,28.65
2018-08-03T11:00:57.022Z,28.68
2018-08-03T11:01:56.910Z,28.72
2018-08-03T11:02:56.795Z,28.38
2018-08-03T11:03:56.686Z,28.65
2018-08-03T11:04:56.573Z,28.46
2018-08-03T11:05:58.180Z,28.53
2018-08-03T11:06:56.414Z,28.90
2018-08-03T11:07:56.237Z,28.96
2018-08-03T11:08:56.127Z,28.73
2018-08-03T11:09:56.019Z,28.97
2018-08-03T11:10:55.904Z,29.22
2018-08-03T11:11:55.791Z,28.56
2018-08-03T11:12:55.680Z,28.58
2018-08-03T11:13:55.578Z,28.53
2018-08-03T11:14:55.459Z,28.81
2018-08-03T11:15:55.351Z,28.97
2018-08-03T11:16:55.235Z,29.26
2018-08-03T11:17:56.684Z,29.60
2018-08-03T11:18:55.021Z,29.92
2018-08-03T11:19:54.907Z,29.99
2018-08-03T11:20:54.799Z,30.02
2018-08-03T11:21:54.688Z,30.34
2018-08-03T11:22:54.574Z,30.54
2018-08-03T11:23:54.463Z,30.86
2018-08-03T11:24:54.354Z,30.74
2018-08-03T11:25:54.244Z,30.84
2018-08-03T11:26:54.136Z,31.02
2018-08-03T11:27:54.025Z,31.26
2018-08-03T11:28:53.913Z,31.26
2018-08-03T11:29:53.809Z,31.26
2018-08-03T11:30:53.692Z,31.55
2018-08-03T11:31:53.588Z,31.45
2018-08-03T11:32:53.474Z,31.62
2018-08-03T11:33:53.369Z,31.45
2018-08-03T11:34:53.255Z,31.09
2018-08-03T11:35:53.145Z,31.15
2018-08-03T11:36:53.035Z,31.27
2018-08-03T11:37:52.925Z,31.21
2018-08-03T11:38:52.816Z,31.57
2018-08-03T11:39:52.707Z,31.73
2018-08-03T11:40:52.648Z,31.48
2018-08-03T11:41:52.487Z,31.70
2018-08-03T11:42:52.377Z,31.91
2018-08-03T11:43:52.271Z,31.98
2018-08-03T11:44:52.163Z,31.77
2018-08-03T11:45:52.049Z,31.55
2018-08-03T11:46:51.937Z,31.38
2018-08-03T11:47:51.828Z,31.48
2018-08-03T11:48:51.722Z,31.31
2018-08-03T11:49:51.610Z,31.05
2018-08-03T11:50:51.499Z,31.04
2018-08-03T11:51:51.389Z,30.98
2018-08-03T11:52:51.280Z,31.13
2018-08-03T11:53:51.170Z,31.13
2018-08-03T11:54:51.060Z,30.64
2018-08-03T11:55:52.697Z,31.24
2018-08-03T11:56:50.847Z,31.54
2018-08-03T11:57:50.733Z,31.85
2018-08-03T11:58:51.209Z,31.98
2018-08-03T11:59:50.511Z,32.22
2018-08-03T12:00:50.455Z,31.92
2018-08-03T12:01:50.299Z,31.57
2018-08-03T12:02:50.189Z,31.88
2018-08-03T12:03:50.079Z,31.99
2018-08-03T12:04:49.966Z,31.85
2018-08-03T12:05:49.856Z,31.95
2018-08-03T12:06:49.750Z,32.42
2018-08-03T12:07:49.640Z,32.73
2018-08-03T12:08:49.671Z,33.11
2018-08-03T12:09:49.424Z,33.39
2018-08-03T12:10:49.309Z,33.29
2018-08-03T12:11:50.703Z,33.31
2018-08-03T12:12:49.092Z,32.58
2018-08-03T12:13:48.986Z,32.66
2018-08-03T12:14:48.876Z,31.75
2018-08-03T12:15:48.771Z,31.65
2018-08-03T12:16:48.661Z,32.20
2018-08-03T12:17:48.574Z,32.59
2018-08-03T12:18:48.444Z,32.98
2018-08-03T12:19:48.338Z,33.01
2018-08-03T12:20:48.229Z,32.79
2018-08-03T12:21:48.133Z,33.15
2018-08-03T12:22:48.012Z,32.91
2018-08-03T12:23:47.927Z,33.26
2018-08-03T12:24:47.795Z,33.31
2018-08-03T12:25:47.691Z,33.71
2018-08-03T12:26:47.579Z,33.83
2018-08-03T12:27:47.475Z,33.94
2018-08-03T12:28:47.365Z,34.01
2018-08-03T12:29:47.259Z,33.78
2018-08-03T12:30:47.152Z,33.64
2018-08-03T12:31:47.043Z,33.65
2018-08-03T12:32:46.977Z,33.63
2018-08-03T12:33:46.827Z,33.73
2018-08-03T12:34:46.721Z,33.87
2018-08-03T12:35:46.611Z,33.70
2018-08-03T12:36:46.507Z,33.90
2018-08-03T12:37:46.397Z,34.29
2018-08-03T12:38:46.289Z,34.01
2018-08-03T12:39:46.185Z,34.20
2018-08-03T12:40:47.715Z,34.41
2018-08-03T12:41:45.969Z,34.22
2018-08-03T12:42:45.862Z,33.31
2018-08-03T12:43:45.752Z,32.22
2018-08-03T12:44:45.647Z,31.65
2018-08-03T12:45:45.540Z,31.46
2018-08-03T12:46:45.434Z,31.11
2018-08-03T12:47:45.324Z,30.43
2018-08-03T12:48:45.216Z,30.00
2018-08-03T12:49:45.108Z,29.60
2018-08-03T12:50:45.104Z,29.43